createdAt,value
2022-12-18T00:00:01.091Z,-3.60
2022-12-18T00:02:32.958Z,-3.60
2022-12-18T00:05:05.238Z,-3.60
2022-12-18T00:07:37.784Z,-3.60
2022-12-18T00:10:09.737Z,-3.60
2022-12-18T00:12:41.426Z,-3.60
2022-12-18T00:15:13.124Z,-3.60
2022-12-18T00:17:44.817Z,-3.60
2022-12-18T00:20:16.685Z,-3.60
2022-12-18T00:22:48.420Z,-3.60
2022-12-18T00:25:20.251Z,-3.60
2022-12-18T00:27:51.957Z,-3.70
2022-12-18T00:30:23.700Z,-3.70
2022-12-18T00:32:55.406Z,-3.70
2022-12-18T00:35:27.599Z,-3.80
2022-12-18T00:37:59.344Z,-3.80
2022-12-18T00:40:31.119Z,-3.80
2022-12-18T00:43:02.813Z,-3.80
2022-12-18T00:45:34.637Z,-3.70
2022-12-18T00:48:06.416Z,-3.70
2022-12-18T00:50:38.234Z,-3.70
2022-12-18T00:53:09.945Z,-3.70
2022-12-18T00:55:42.409Z,-3.80
2022-12-18T00:58:16.470Z,-3.70
2022-12-18T01:00:48.275Z,-3.70
2022-12-18T01:03:20.057Z,-3.70
2022-12-18T01:05:51.885Z,-3.70
2022-12-18T01:08:24.359Z,-3.60
2022-12-18T01:10:56.030Z,-3.60
2022-12-18T01:13:28.223Z,-3.70
2022-12-18T01:15:59.972Z,-3.70
2022-12-18T01:18:32.085Z,-3.70
2022-12-18T01:21:09.066Z,-3.70
2022-12-18T01:23:45.550Z,-3.70
2022-12-18T01:26:17.558Z,-3.70
2022-12-18T01:28:49.392Z,-3.60
2022-12-18T01:31:30.100Z,-3.70
2022-12-18T01:34:02.899Z,-3.60
2022-12-18T01:36:37.297Z,-3.60
2022-12-18T01:39:12.620Z,-4.40
2022-12-18T01:42:02.859Z,-3.60
2022-12-18T01:45:12.681Z,-3.60
2022-12-18T01:47:57.033Z,-3.60
2022-12-18T01:50:36.826Z,-3.60
2022-12-18T01:53:12.656Z,-3.70
2022-12-18T01:55:48.168Z,-3.70
2022-12-18T01:58:24.160Z,-3.80
2022-12-18T02:00:56.379Z,-3.80
2022-12-18T02:03:28.215Z,-3.70
2022-12-18T02:06:12.009Z,-3.70
2022-12-18T02:09:00.943Z,-3.70
2022-12-18T02:11:43.722Z,-3.70
2022-12-18T02:14:32.365Z,-3.70
2022-12-18T02:17:18.586Z,-3.70
2022-12-18T02:20:17.822Z,-3.60
2022-12-18T02:23:26.840Z,-3.60
2022-12-18T02:26:07.516Z,-3.50
2022-12-18T02:28:46.050Z,-3.50
2022-12-18T02:31:24.740Z,-3.60
2022-12-18T02:34:01.374Z,-3.70
2022-12-18T02:36:34.569Z,-3.60
2022-12-18T02:39:09.995Z,-3.60
2022-12-18T02:41:44.354Z,-3.60
2022-12-18T02:44:16.114Z,-3.60
2022-12-18T02:46:52.757Z,-3.50
2022-12-18T02:49:28.685Z,-3.50
2022-12-18T02:52:08.605Z,-3.50
2022-12-18T02:54:49.032Z,-3.50
2022-12-18T02:57:35.742Z,-3.40
2022-12-18T03:00:21.208Z,-3.40
2022-12-18T03:03:02.774Z,-3.40
2022-12-18T03:05:41.555Z,-2.80
2022-12-18T03:08:35.255Z,-3.30
2022-12-18T03:11:12.127Z,-3.30
2022-12-18T03:13:51.823Z,-3.40
2022-12-18T03:16:31.221Z,-3.40
2022-12-18T03:19:17.040Z,-3.50
2022-12-18T03:21:52.733Z,-3.50
2022-12-18T03:24:26.838Z,-3.60
2022-12-18T03:27:03.398Z,-3.60
2022-12-18T03:29:55.181Z,-3.60
2022-12-18T03:32:43.233Z,-3.70
2022-12-18T03:35:20.690Z,-3.80
2022-12-18T03:37:52.822Z,-3.80
2022-12-18T03:40:32.161Z,-3.80
2022-12-18T03:43:12.038Z,-3.80
2022-12-18T03:45:54.022Z,-3.80
2022-12-18T03:48:43.303Z,-3.80
2022-12-18T03:51:29.350Z,-3.80
2022-12-18T03:54:05.262Z,-3.80
2022-12-18T03:56:47.820Z,-3.70
2022-12-18T03:59:21.056Z,-3.70
2022-12-18T04:01:54.755Z,-3.70
2022-12-18T04:04:29.405Z,-3.70
2022-12-18T04:07:05.418Z,-3.70
2022-12-18T04:09:40.767Z,-3.70
2022-12-18T04:12:13.738Z,-3.70
2022-12-18T04:14:45.866Z,-3.60
2022-12-18T04:17:18.805Z,-3.60
2022-12-18T04:19:50.925Z,-3.70
2022-12-18T04:22:23.156Z,-3.70
2022-12-18T04:24:59.845Z,-3.70
2022-12-18T04:27:38.353Z,-3.70
2022-12-18T04:30:11.506Z,-3.70
2022-12-18T04:32:47.736Z,-3.70
2022-12-18T04:35:22.581Z,-3.70
2022-12-18T04:37:54.922Z,-3.70
2022-12-18T04:40:26.721Z,-3.70
2022-12-18T04:42:58.748Z,-3.70
2022-12-18T04:45:31.946Z,-3.70
2022-12-18T04:48:04.728Z,-3.70
2022-12-18T04:50:36.505Z,-3.70
2022-12-18T04:53:08.229Z,-3.70
2022-12-18T04:55:40.306Z,-3.70
2022-12-18T04:58:12.012Z,-3.70
2022-12-18T05:00:43.735Z,-3.70
2022-12-18T05:03:15.458Z,-3.70
2022-12-18T05:05:51.516Z,-3.60
2022-12-18T05:08:24.185Z,-3.70
2022-12-18T05:11:07.238Z,-3.80
2022-12-18T05:13:39.715Z,-3.80
2022-12-18T05:16:12.392Z,-3.80
2022-12-18T05:18:44.438Z,-3.80
2022-12-18T05:21:16.186Z,-3.80
2022-12-18T05:23:47.996Z,-3.80
2022-12-18T05:26:20.019Z,-3.80
2022-12-18T05:28:51.704Z,-4.00
2022-12-18T05:31:23.784Z,-4.00
2022-12-18T05:33:55.523Z,-4.00
2022-12-18T05:36:27.436Z,-4.10
2022-12-18T05:38:59.205Z,-4.00
2022-12-18T05:41:30.905Z,-4.00
2022-12-18T05:44:02.650Z,-4.00
2022-12-18T05:46:34.425Z,-4.00
2022-12-18T05:49:06.291Z,-4.00
2022-12-18T05:51:37.988Z,-4.10
2022-12-18T05:54:09.723Z,-4.10
2022-12-18T05:56:48.390Z,-4.30
2022-12-18T05:59:20.768Z,-2.90
2022-12-18T06:01:52.602Z,-4.30
2022-12-18T06:04:24.423Z,-4.30
2022-12-18T06:06:56.194Z,-4.30
2022-12-18T06:09:27.914Z,-4.30
2022-12-18T06:12:00.086Z,-4.20
2022-12-18T06:14:31.803Z,-4.30
2022-12-18T06:17:03.643Z,-4.40
2022-12-18T06:19:35.365Z,-4.40
2022-12-18T06:22:07.068Z,-4.40
2022-12-18T06:24:38.773Z,-4.40
2022-12-18T06:27:10.998Z,-4.40
2022-12-18T06:29:42.820Z,-4.40
2022-12-18T06:32:14.558Z,-4.00
2022-12-18T06:34:46.252Z,-4.40
2022-12-18T06:37:18.005Z,-4.40
2022-12-18T06:39:49.850Z,-4.30
2022-12-18T06:42:21.600Z,-4.30
2022-12-18T06:44:53.331Z,-4.40
2022-12-18T06:47:25.145Z,-4.40
2022-12-18T06:49:56.843Z,-4.40
2022-12-18T06:52:28.560Z,-4.40
2022-12-18T06:55:00.786Z,-4.40
2022-12-18T06:57:32.499Z,-4.40
2022-12-18T07:00:06.941Z,-4.40
2022-12-18T07:02:38.770Z,-4.50
2022-12-18T07:05:11.204Z,-4.50
2022-12-18T07:07:43.080Z,-4.50
2022-12-18T07:10:14.824Z,-4.50
2022-12-18T07:12:46.696Z,-4.40
2022-12-18T07:15:18.410Z,-4.30
2022-12-18T07:17:50.138Z,-4.30
2022-12-18T07:20:21.880Z,-4.30
2022-12-18T07:22:56.356Z,-4.20
2022-12-18T07:25:28.402Z,-4.20
2022-12-18T07:28:00.252Z,-4.10
2022-12-18T07:30:32.311Z,-4.10
2022-12-18T07:33:04.091Z,-4.10
2022-12-18T07:35:35.799Z,-4.10
2022-12-18T07:38:07.536Z,-4.10
2022-12-18T07:40:39.267Z,-4.10
2022-12-18T07:43:10.974Z,-4.10
2022-12-18T07:45:44.064Z,-4.10
2022-12-18T07:48:15.794Z,-4.10
2022-12-18T07:50:47.884Z,-4.10
2022-12-18T07:53:19.615Z,-4.10
2022-12-18T07:56:25.593Z,-4.10
2022-12-18T07:58:48.792Z,-4.00
2022-12-18T08:01:21.373Z,-4.00
2022-12-18T08:03:53.504Z,-4.00
2022-12-18T08:06:25.436Z,-4.00
2022-12-18T08:08:57.331Z,-3.90
2022-12-18T08:11:29.591Z,-3.90
2022-12-18T08:14:01.362Z,-4.00
2022-12-18T08:16:33.294Z,-3.90
2022-12-18T08:19:05.078Z,-3.90
2022-12-18T08:21:37.835Z,-3.90
2022-12-18T08:24:10.255Z,-3.90
2022-12-18T08:26:43.655Z,-3.90
2022-12-18T08:29:23.840Z,-4.00
2022-12-18T08:31:55.617Z,-4.00
2022-12-18T08:34:27.545Z,-4.00
2022-12-18T08:36:59.368Z,-3.90
2022-12-18T08:39:31.105Z,-3.90
2022-12-18T08:42:21.729Z,-3.90
2022-12-18T08:44:53.446Z,-3.90
2022-12-18T08:47:26.853Z,-4.00
2022-12-18T08:49:58.641Z,-3.90
2022-12-18T08:52:32.952Z,-3.90
2022-12-18T08:55:05.397Z,-3.90
2022-12-18T08:57:37.101Z,-3.90
2022-12-18T09:00:09.536Z,-3.90
2022-12-18T09:02:41.320Z,-3.90
2022-12-18T09:05:13.101Z,-3.90
2022-12-18T09:07:44.913Z,-3.90
2022-12-18T09:10:17.216Z,-3.80
2022-12-18T09:12:49.229Z,-3.80
2022-12-18T09:15:21.570Z,-3.70
2022-12-18T09:17:53.867Z,-3.60
2022-12-18T09:20:25.856Z,-3.70
2022-12-18T09:22:57.613Z,-3.70
2022-12-18T09:25:34.166Z,-3.70
2022-12-18T09:28:16.779Z,-3.60
2022-12-18T09:30:50.252Z,-3.70
2022-12-18T09:33:22.107Z,-3.80
2022-12-18T09:35:54.430Z,-3.70
2022-12-18T09:38:26.120Z,-3.60
2022-12-18T09:41:23.293Z,-3.50
2022-12-18T09:43:59.738Z,-3.50
2022-12-18T09:46:35.583Z,-3.50
2022-12-18T09:49:14.472Z,-3.40
2022-12-18T09:52:02.891Z,-3.40
2022-12-18T09:54:44.653Z,-3.50
2022-12-18T09:57:20.462Z,-3.50
2022-12-18T10:00:00.148Z,-3.50
2022-12-18T10:02:33.509Z,-3.60
2022-12-18T10:05:21.654Z,-3.60
2022-12-18T10:08:14.441Z,-3.60
2022-12-18T10:10:54.931Z,-3.60
2022-12-18T10:13:42.818Z,-3.50
2022-12-18T10:16:26.257Z,-3.50
2022-12-18T10:19:15.902Z,-3.60
2022-12-18T10:21:59.802Z,-3.50
2022-12-18T10:25:04.965Z,-3.30
2022-12-18T10:27:36.696Z,-3.30
2022-12-18T10:30:18.139Z,-3.30
2022-12-18T10:32:50.385Z,-3.30
2022-12-18T10:35:30.551Z,-3.30
2022-12-18T10:38:21.429Z,-3.30
2022-12-18T10:41:00.953Z,-3.20
2022-12-18T10:43:37.528Z,-3.20
2022-12-18T10:46:09.361Z,-3.20
2022-12-18T10:48:55.090Z,-3.30
2022-12-18T10:51:34.515Z,-3.40
2022-12-18T10:54:16.024Z,-3.60
2022-12-18T10:56:48.203Z,-3.70
2022-12-18T10:59:20.090Z,-3.70
2022-12-18T11:01:57.214Z,-3.60
2022-12-18T11:04:31.370Z,-3.50
2022-12-18T11:07:07.032Z,-3.50
2022-12-18T11:09:41.611Z,-3.50
2022-12-18T11:12:19.237Z,-3.60
2022-12-18T11:14:53.328Z,-3.70
2022-12-18T11:17:36.715Z,-3.00
2022-12-18T11:20:35.077Z,-3.60
2022-12-18T11:23:14.143Z,-3.50
2022-12-18T11:25:58.874Z,-3.50
2022-12-18T11:28:43.230Z,-3.50
2022-12-18T11:31:29.228Z,-3.40
2022-12-18T11:34:29.168Z,-3.40
2022-12-18T11:37:04.414Z,-3.30
2022-12-18T11:40:00.387Z,-3.30
2022-12-18T11:42:36.807Z,-3.30
2022-12-18T11:45:14.354Z,-3.20
2022-12-18T11:47:58.270Z,-3.20
2022-12-18T11:50:33.618Z,-3.10
2022-12-18T11:53:06.423Z,-3.10
2022-12-18T11:55:48.355Z,-3.10
2022-12-18T11:58:43.934Z,-3.10
2022-12-18T12:01:24.753Z,-3.10
2022-12-18T12:04:31.287Z,-3.10
2022-12-18T12:07:27.022Z,-3.10
2022-12-18T12:10:10.510Z,-3.10
2022-12-18T12:13:06.512Z,-3.00
2022-12-18T12:15:41.190Z,-3.10
2022-12-18T12:18:51.221Z,-3.00
2022-12-18T12:21:34.490Z,-2.90
2022-12-18T12:24:28.466Z,-2.90
2022-12-18T12:27:21.877Z,-2.80
2022-12-18T12:29:59.734Z,-2.70
2022-12-18T12:32:56.821Z,-2.70
2022-12-18T12:35:46.015Z,-2.60
2022-12-18T12:38:29.278Z,-2.70
2022-12-18T12:41:07.394Z,-2.70
2022-12-18T12:43:49.449Z,-2.80
2022-12-18T12:46:24.468Z,-2.90
2022-12-18T12:49:02.352Z,-2.80
2022-12-18T12:51:41.430Z,-2.80
2022-12-18T12:54:18.702Z,-2.90
2022-12-18T12:57:13.763Z,-2.80
2022-12-18T12:59:53.013Z,-2.70
2022-12-18T13:02:42.778Z,-2.60
2022-12-18T13:05:41.334Z,-2.60
2022-12-18T13:08:24.929Z,-2.70
2022-12-18T13:11:17.831Z,-2.70
2022-12-18T13:13:55.175Z,-2.70
2022-12-18T13:16:28.558Z,-2.70
2022-12-18T13:19:00.393Z,-2.80
2022-12-18T13:21:34.592Z,-2.90
2022-12-18T13:24:23.930Z,-3.00
2022-12-18T13:26:56.150Z,-3.00
2022-12-18T13:29:47.437Z,-2.90
2022-12-18T13:32:25.390Z,-2.80
2022-12-18T13:35:22.886Z,-2.80
2022-12-18T13:37:56.023Z,-2.80
2022-12-18T13:40:39.621Z,-2.80
2022-12-18T13:43:20.531Z,-2.80
2022-12-18T13:46:04.708Z,-2.90
2022-12-18T13:48:39.013Z,-3.00
2022-12-18T13:51:12.294Z,-2.90
2022-12-18T13:53:48.925Z,-2.90
2022-12-18T13:56:26.752Z,-2.90
2022-12-18T13:59:05.952Z,-2.90
2022-12-18T14:01:44.130Z,-2.90
2022-12-18T14:04:23.996Z,-3.00
2022-12-18T14:07:18.164Z,-3.10
2022-12-18T14:10:01.876Z,-3.20
2022-12-18T14:12:57.638Z,-3.20
2022-12-18T14:15:45.335Z,-3.20
2022-12-18T14:18:28.048Z,-3.30
2022-12-18T14:21:02.591Z,-3.30
2022-12-18T14:23:43.440Z,-3.40
2022-12-18T14:26:29.984Z,-3.40
2022-12-18T14:29:18.284Z,-3.40
2022-12-18T14:32:23.405Z,-3.40
2022-12-18T14:34:56.193Z,-3.50
2022-12-18T14:37:28.367Z,-3.50
2022-12-18T14:40:10.654Z,-3.50
2022-12-18T14:42:43.342Z,-3.50
2022-12-18T14:45:41.619Z,-3.50
2022-12-18T14:48:35.118Z,-3.50
2022-12-18T14:51:41.029Z,-3.50
2022-12-18T14:54:18.882Z,-3.60
2022-12-18T14:57:03.802Z,-3.60
2022-12-18T14:59:35.540Z,-3.60
2022-12-18T15:02:25.883Z,-3.70
2022-12-18T15:05:19.048Z,-3.70
2022-12-18T15:07:56.724Z,-3.80
2022-12-18T15:10:31.878Z,-3.80
2022-12-18T15:13:04.345Z,-3.80
2022-12-18T15:15:38.958Z,-3.80
2022-12-18T15:18:17.739Z,-3.80
2022-12-18T15:21:01.527Z,-3.80
2022-12-18T15:23:47.573Z,-3.80
2022-12-18T15:26:22.256Z,-3.80
2022-12-18T15:28:56.926Z,-3.80
2022-12-18T15:31:32.484Z,-3.80
2022-12-18T15:34:10.008Z,-3.80
2022-12-18T15:36:41.788Z,-3.80
2022-12-18T15:39:14.246Z,-3.90
2022-12-18T15:42:06.175Z,-3.90
2022-12-18T15:44:38.333Z,-3.90
2022-12-18T15:47:14.196Z,-3.90
2022-12-18T15:49:45.909Z,-3.90
2022-12-18T15:52:26.773Z,-3.90
2022-12-18T15:55:17.574Z,-4.00
2022-12-18T15:57:49.572Z,-3.90
2022-12-18T16:00:21.789Z,-4.00
2022-12-18T16:02:53.764Z,-4.00
2022-12-18T16:05:26.896Z,-4.00
2022-12-18T16:07:59.113Z,-4.00
2022-12-18T16:10:30.859Z,-4.10
2022-12-18T16:13:02.588Z,-4.00
2022-12-18T16:15:34.413Z,-4.10
2022-12-18T16:18:06.271Z,-4.00
2022-12-18T16:20:39.539Z,-4.10
2022-12-18T16:23:11.306Z,-4.10
2022-12-18T16:25:43.249Z,-4.10
2022-12-18T16:28:15.001Z,-4.10
2022-12-18T16:30:47.063Z,-4.20
2022-12-18T16:33:18.824Z,-4.20
2022-12-18T16:35:54.148Z,-4.30
2022-12-18T16:38:25.965Z,-4.30
2022-12-18T16:41:16.474Z,-4.30
2022-12-18T16:43:54.415Z,-4.30
2022-12-18T16:46:27.187Z,-4.30
2022-12-18T16:49:00.540Z,-4.30
2022-12-18T16:51:33.700Z,-4.30
2022-12-18T16:54:10.184Z,-4.30
2022-12-18T16:56:43.467Z,-4.30
2022-12-18T16:59:15.459Z,-4.40
2022-12-18T17:01:47.883Z,-4.50
2022-12-18T17:04:19.666Z,-4.60
2022-12-18T17:06:54.485Z,-4.70
2022-12-18T17:09:26.392Z,-4.70
2022-12-18T17:11:59.139Z,-4.80
2022-12-18T17:14:34.263Z,-4.90
2022-12-18T17:17:20.858Z,-5.00
2022-12-18T17:19:53.479Z,-5.10
2022-12-18T17:22:25.225Z,-5.20
2022-12-18T17:24:57.092Z,-5.30
2022-12-18T17:27:28.823Z,-5.30
2022-12-18T17:30:00.601Z,-5.30
2022-12-18T17:32:32.342Z,-5.20
2022-12-18T17:35:07.399Z,-5.30
2022-12-18T17:37:40.339Z,-5.30
2022-12-18T17:40:12.086Z,-5.30
2022-12-18T17:42:44.009Z,-5.30
2022-12-18T17:45:15.882Z,-5.30
2022-12-18T17:47:47.715Z,-5.30
2022-12-18T17:50:19.572Z,-5.30
2022-12-18T17:52:56.135Z,-5.30
2022-12-18T17:55:28.771Z,-5.30
2022-12-18T17:58:00.581Z,-5.40
2022-12-18T18:00:32.293Z,-5.40
2022-12-18T18:03:04.483Z,-5.40
2022-12-18T18:05:36.428Z,-5.50
2022-12-18T18:08:08.643Z,-5.50
2022-12-18T18:10:40.819Z,-5.50
2022-12-18T18:13:46.315Z,-5.60
2022-12-18T18:16:18.576Z,-5.60
2022-12-18T18:18:50.332Z,-5.60
2022-12-18T18:21:22.046Z,-5.70
2022-12-18T18:23:54.486Z,-5.70
2022-12-18T18:26:29.216Z,-5.60
2022-12-18T18:29:05.073Z,-5.90
2022-12-18T18:31:41.167Z,-6.00
2022-12-18T18:34:26.805Z,-6.10
2022-12-18T18:36:59.136Z,-6.20
2022-12-18T18:39:30.938Z,-6.30
2022-12-18T18:42:04.002Z,-6.30
2022-12-18T18:44:35.802Z,-6.30
2022-12-18T18:47:09.646Z,-6.40
2022-12-18T18:49:41.661Z,-6.30
2022-12-18T18:52:13.603Z,-6.30
2022-12-18T18:55:11.516Z,-6.40
2022-12-18T18:57:39.675Z,-6.40
2022-12-18T19:00:12.569Z,-6.10
2022-12-18T19:02:44.706Z,-6.30
2022-12-18T19:05:16.597Z,-6.20
2022-12-18T19:07:48.471Z,-6.30
2022-12-18T19:10:20.245Z,-6.10
2022-12-18T19:13:10.889Z,-6.30
2022-12-18T19:15:42.587Z,-6.20
2022-12-18T19:18:15.133Z,-6.20
2022-12-18T19:21:01.398Z,-6.20
2022-12-18T19:23:34.218Z,-6.10
2022-12-18T19:29:04.313Z,-6.20
2022-12-18T19:31:37.485Z,-6.40
2022-12-18T19:34:09.581Z,-6.40
2022-12-18T19:36:41.759Z,-6.50
2022-12-18T19:39:18.124Z,-6.40
2022-12-18T19:41:52.447Z,-6.10
2022-12-18T19:44:24.287Z,-5.80
2022-12-18T19:46:56.277Z,-5.60
2022-12-18T19:49:28.510Z,-5.50
2022-12-18T19:52:00.217Z,-5.40
2022-12-18T19:54:32.098Z,-5.30
2022-12-18T19:57:07.132Z,-5.30
2022-12-18T19:59:38.933Z,-5.40
2022-12-18T20:02:13.798Z,-5.40
2022-12-18T20:04:45.673Z,-5.40
2022-12-18T20:07:17.364Z,-5.40
2022-12-18T20:09:51.640Z,-5.40
2022-12-18T20:12:28.875Z,-5.40
2022-12-18T20:15:00.979Z,-5.40
2022-12-18T20:17:32.765Z,-5.30
2022-12-18T20:20:06.017Z,-5.30
2022-12-18T20:22:37.773Z,-5.30
2022-12-18T20:25:10.347Z,-5.20
2022-12-18T20:27:42.132Z,-5.20
2022-12-18T20:30:13.993Z,-5.20
2022-12-18T20:32:45.701Z,-5.10
2022-12-18T20:35:17.589Z,-5.10
2022-12-18T20:37:50.816Z,-5.10
2022-12-18T20:40:24.025Z,-5.10
2022-12-18T20:42:55.787Z,-5.10
2022-12-18T20:45:28.757Z,-5.10
2022-12-18T20:48:01.601Z,-5.10
2022-12-18T20:50:33.455Z,-5.00
2022-12-18T20:53:05.882Z,-5.00
2022-12-18T20:55:42.446Z,-5.00
2022-12-18T20:58:14.337Z,-4.90
2022-12-18T21:00:46.081Z,-4.90
2022-12-18T21:03:18.842Z,-4.90
2022-12-18T21:05:50.689Z,-4.80
2022-12-18T21:08:22.452Z,-4.80
2022-12-18T21:10:55.563Z,-4.80
2022-12-18T21:13:27.301Z,-4.80
2022-12-18T21:16:01.267Z,-4.80
2022-12-18T21:18:33.078Z,-4.70
2022-12-18T21:21:05.055Z,-4.70
2022-12-18T21:23:37.266Z,-4.70
2022-12-18T21:26:24.032Z,-4.70
2022-12-18T21:28:58.049Z,-4.70
2022-12-18T21:31:35.319Z,-4.70
2022-12-18T21:34:08.568Z,-4.70
2022-12-18T21:36:40.411Z,-4.70
2022-12-18T21:39:13.083Z,-4.60
2022-12-18T21:42:03.962Z,-4.70
2022-12-18T21:44:41.617Z,-4.60
2022-12-18T21:47:22.661Z,-4.60
2022-12-18T21:49:54.868Z,-4.60
2022-12-18T21:52:31.939Z,-4.60
2022-12-18T21:55:09.586Z,-4.60
2022-12-18T21:57:41.923Z,-4.50
2022-12-18T22:00:19.047Z,-4.50
2022-12-18T22:03:17.087Z,-4.50
2022-12-18T22:05:43.184Z,-4.50
2022-12-18T22:08:15.009Z,-4.50
2022-12-18T22:10:47.051Z,-4.50
2022-12-18T22:13:18.826Z,-4.50
2022-12-18T22:15:50.675Z,-4.40
2022-12-18T22:18:22.813Z,-4.40
2022-12-18T22:21:05.157Z,-4.40
2022-12-18T22:23:36.870Z,-4.40
2022-12-18T22:26:10.706Z,-4.40
2022-12-18T22:29:01.348Z,-4.40
2022-12-18T22:31:33.457Z,-4.30
2022-12-18T22:34:06.271Z,-4.30
2022-12-18T22:36:41.255Z,-4.30
2022-12-18T22:39:24.960Z,-4.30
2022-12-18T22:41:56.720Z,-4.30
2022-12-18T22:44:28.474Z,-4.30
2022-12-18T22:47:06.379Z,-4.40
2022-12-18T22:49:38.871Z,-4.30
2022-12-18T22:52:10.707Z,-4.30
2022-12-18T22:54:42.441Z,-4.20
2022-12-18T22:57:14.189Z,-4.20
2022-12-18T22:59:46.374Z,-4.20
2022-12-18T23:02:18.880Z,-4.30
2022-12-18T23:04:50.968Z,-4.30
2022-12-18T23:07:22.681Z,-4.20
2022-12-18T23:09:59.685Z,-4.20
2022-12-18T23:12:33.029Z,-4.20
2022-12-18T23:15:07.794Z,-4.20
2022-12-18T23:17:39.498Z,-5.90
2022-12-18T23:20:11.680Z,-4.20
2022-12-18T23:22:43.470Z,-4.20
2022-12-18T23:25:15.223Z,-4.20
2022-12-18T23:27:47.227Z,-4.20
2022-12-18T23:30:19.378Z,-4.20
2022-12-18T23:32:51.223Z,-4.10
2022-12-18T23:35:23.084Z,-4.10
2022-12-18T23:37:59.336Z,-4.10
2022-12-18T23:40:31.696Z,-4.10
2022-12-18T23:43:03.414Z,-4.10
2022-12-18T23:45:37.953Z,-4.10
2022-12-18T23:48:09.662Z,-4.10
2022-12-18T23:50:41.392Z,-4.10
2022-12-18T23:53:13.640Z,-4.10
2022-12-18T23:55:45.624Z,-4.10
2022-12-18T23:58:21.237Z,-4.10
